Carson Sink, Nevada Weather observations

Data are for observation ending at time listed.
 Day   Time    Ave.   Ave.  Ave.  Vector   Max.   Stn.    Total    Solar   Ave.  
  of    of     Air    Rel.  Wind   Wind    Wind   Baro.  Precip.   Rad.    Soil  
Year   Day     Temp.  Hum.  Speed  Dir.    Gust   Pres.                    Temp. 
2017   (PST)    F      %     mph   deg.    mph     mb.     in.     W/m2     F   
------------------------------------------------------------------------------
  19    4:30   32.1    86    6.5   234      8.4   872.0    0.00       0     35.0
  19    4:40   33.0    86    8.4   232     10.2   872.1    0.00       0     34.9
  19    4:50   32.8    85    7.8   285     13.4   872.2    0.00       0     34.9
  19    5:00   33.4    85    8.5   286     12.8   872.3    0.00       0     34.9
  19    5:10   33.9    83    7.6   273     10.9   872.3    0.00       0     34.9
  19    5:20   33.3    84    6.5   292      9.3   872.4    0.00       0     34.8
  19    5:30   33.9    83    5.3   284      9.8   872.4    0.00       0     34.8
  19    5:40   34.4    82    2.7   326      4.5   872.5    0.00       0     34.8
  19    5:50   34.4    81    6.6   355     10.7   872.7    0.00       0     34.8
  19    6:00   35.0    80    6.1   340      9.9   872.9    0.00       0     34.8
  19    6:10   35.8    78    3.5   284      6.1   873.1    0.00       0     34.8
  19    6:20   35.8    78    0.7   224      2.2   873.2    0.00       0     34.8
  19    6:30   35.8    77    2.3   162      4.0   873.1    0.00       0     34.8
  19    6:40   35.3    77    2.6   137      3.3   873.3    0.00       0     34.7
  19    6:50   36.2    75    4.6   144      5.7   873.4    0.00       0     34.7
  19    7:00   34.7    76    5.1   173      8.8   873.5    0.00       0     34.7
  19    7:10   35.7    75   11.7   201     16.1   873.5    0.00       1     34.7
  19    7:20   35.4    74   13.4   202     15.5   873.5    0.00       3     34.7
  19    7:30   35.2    74   12.1   208     14.0   873.6    0.00       5     34.6
  19    7:40   35.3    74   13.4   208     16.4   873.7    0.00       6     34.6
  19    7:50   35.4    73   13.5   206     15.9   873.6    0.00      10     34.6
  19    8:00   34.9    74   12.5   208     14.5   873.7    0.00      24     34.6
  19    8:10   35.0    74   11.2   215     14.2   873.9    0.00      36     34.6
  19    8:20   34.7    75    9.5   220     11.0   874.1    0.00      54     34.6
  19    8:30   34.6    76   10.2   213     11.6   874.3    0.00      71     34.6
  19    8:40   35.2    75   11.5   213     12.9   874.4    0.00      67     34.6
  19    8:50   34.9    75    8.9   216     10.3   874.5    0.00      70     34.6
  19    9:00   34.5    76    8.6   220     10.4   874.7    0.00      70     34.5
  19    9:10   34.5    77    9.2   210     10.7   874.7    0.00     101     34.5
  19    9:20   34.9    77   10.4   199     13.1   874.7    0.00     114     34.5
  19    9:30   35.7    75   13.0   215     16.4   874.8    0.00     114     34.5
  19    9:40   35.8    75   11.5   229     15.3   874.8    0.00     170     34.5
  19    9:50   36.7    75   11.9   218     14.7   874.8    0.00     234     34.5
  19   10:00   37.0    76   11.1   213     14.2   874.7    0.00     198     34.5
  19   10:10   37.3    75   13.0   215     15.2   874.7    0.00     179     34.5
  19   10:20   38.1    76   14.7   216     18.9   874.6    0.00     483     34.5
  19   10:30   38.8    76   17.8   211     20.4   874.5    0.00     312     34.6
  19   10:40   39.0    77   18.0   209     20.6   874.5    0.00     463     34.7
  19   10:50   39.7    76   17.6   214     20.8   874.4    0.00     471     34.7
  19   11:00   39.8    74   17.5   210     20.4   874.3    0.00     481     34.9
  19   11:10   40.0    74   17.0   211     19.3   874.2    0.00     490     35.0
  19   11:20   40.4    74   15.7   209     18.1   874.3    0.00     489     35.2
  19   11:30   40.5    74   16.0   210     19.5   874.3    0.00     490     35.4
  19   11:40   40.4    74   14.4   207     18.0   874.3    0.00     496     35.6
  19   11:50   40.8    75   12.6   210     15.6   874.2    0.00     499     35.8
  19   12:00   41.0    74   11.6   218     14.5   874.2    0.00     510     36.0
  19   12:10   41.5    72   12.3   216     16.3   874.0    0.00     513     36.3
  19   12:20   41.6    70   10.0   220     13.1   874.0    0.00     508     36.5
  19   12:30   42.2    70    9.4   211     13.7   874.0    0.00     324     36.8
  19   12:40   41.7    69    8.6   237     12.0   873.8    0.00     230     37.0
  19   12:50   42.1    67   11.0   244     14.0   873.7    0.00     190     37.3
  19   13:00   42.4    67   11.7   241     14.3   873.6    0.00     240     37.5
  19   13:10   42.7    68   13.6   238     17.0   873.5    0.00     227     37.7
  19   13:20   42.5    65   13.2   238     16.4   873.5    0.00     178     37.9
  19   13:30   42.7    63   14.2   234     17.9   873.4    0.00     156     38.1
  19   13:40   42.6    63   13.6   231     16.2   873.3    0.00     153     38.3
  19   13:50   42.7    60   15.2   218     19.6   873.2    0.00     171     38.4
  19   14:00   43.2    59   13.6   214     16.4   873.3    0.00     403     38.6
  19   14:10   43.6    57   11.8   223     16.1   873.2    0.00     382     38.7
  19   14:20   43.5    59   15.3   227     20.8   873.1    0.00     325     38.8
  19   14:30   43.4    61   19.2   223     22.6   873.0    0.00     443     38.9
  19   14:40   43.5    62   14.7   217     17.9   873.0    0.00     420     39.0
  19   14:50   43.3    60   12.8   213     16.1   873.1    0.00     301     39.2
  19   15:00   42.9    60   10.9   209     13.8   873.1    0.00     160     39.3
  19   15:10   42.7    62   10.8   202     14.5   873.0    0.00     152     39.4
  19   15:20   42.4    62   10.9   202     12.9   873.0    0.00     122     39.6
  19   15:30   42.5    62    8.6   202     10.9   873.0    0.00     173     39.7
  19   15:40   42.5    67   10.1   183     14.0   873.0    0.00     228     39.8
  19   15:50   42.3    68    9.9   186     12.8   873.0    0.00     172     39.9
  19   16:00   42.4    68    9.5   186     12.4   873.1    0.00     124     40.0
  19   16:10   42.3    68    8.9   184     11.3   873.1    0.00      86     40.0
  19   16:20   42.3    66    8.3   185     10.4   873.1    0.00      57     40.1
  19   16:30   42.0    68    8.6   184     11.6   873.1    0.00      33     40.1
  19   16:40   41.8    70    7.2   183      9.7   873.1    0.00      17     40.1
  19   16:50   41.4    71    6.4   185      8.2   873.0    0.00      10     40.1
  19   17:00   40.5    72    5.8   183      7.2   873.0    0.00       6     40.1
  19   17:10   39.9    74    5.5   176      7.7   872.9    0.00       2     40.1
  19   17:20   39.0    75    6.1   177      7.7   872.9    0.00       0     40.0
  19   17:30   38.8    75    5.4   178      7.5   872.8    0.00       0     40.0
  19   17:40   38.6    75    5.6   185      8.2   872.8    0.00       0     39.9
  19   17:50   38.3    75    5.5   182      7.4   872.9    0.00       0     39.8
  19   18:00   37.4    76    4.9   173      7.1   872.9    0.00       0     39.7
  19   18:10   36.2    78    4.2   168      5.4   872.9    0.00       0     39.6
  19   18:20   36.2    78    6.2   181      9.8   872.8    0.00       0     39.5
  19   18:30   37.5    76    5.8   188      7.9   872.8    0.00       0     39.4
  19   18:40   37.0    75    5.9   191      7.7   872.8    0.00       0     39.3
  19   18:50   37.1    75    5.3   188      7.1   872.8    0.00       0     39.2
  19   19:00   36.7    76    5.6   190      6.8   872.7    0.00       0     39.1
  19   19:10   36.4    76    5.1   185      7.4   872.6    0.00       0     39.0
  19   19:20   35.4    78    4.8   162      5.5   872.5    0.00       0     38.9
  19   19:30   34.7    79    4.7   168      5.7   872.3    0.00       0     38.8
  19   19:40   34.4    79    5.4   166      6.2   872.3    0.00       0     38.7
  19   19:50   34.3    80    4.2   170      5.6   872.1    0.00       0     38.6
  19   20:00   33.6    80    4.3   168      5.0   872.0    0.00       0     38.5
  19   20:10   33.2    81    4.6   171      6.4   871.9    0.00       0     38.4
  19   20:20   33.9    81    5.4   182      6.9   871.8    0.00       0     38.3
  19   20:30   34.6    80    4.8   184      7.3   871.7    0.00       0     38.1
  19   20:40   34.3    79    4.7   192      6.2   871.6    0.00       0     38.0
  19   20:50   33.1    79    4.2   198      6.6   871.5    0.00       0     37.9
  19   21:00   33.4    79    2.9   204      5.6   871.4    0.00       0     37.8
  19   21:10   32.8    80    3.5   235      5.4   871.3    0.00       0     37.7
  19   21:20   32.1    81    2.4   271      4.5   871.3    0.00       0     37.6
  19   21:30   33.3    81    4.5   272      7.2   871.3    0.00       0     37.5
  19   21:40   33.0    80    3.1   310      5.0   871.2    0.00       0     37.5
  19   21:50   33.4    81    1.4   342      3.9   871.2    0.00       0     37.4
  19   22:00   33.9    80    1.4   323      3.9   871.1    0.00       0     37.3
  19   22:10   34.5    79    1.9   310      4.0   871.0    0.00       0     37.2
  19   22:20   34.1    79    2.4   330      3.2   870.9    0.00       0     37.1
  19   22:30   34.2    80    0.5   335      2.0   870.7    0.00       0     37.0
  19   22:40   34.0    80    1.3    78      3.6   870.6    0.00       0     37.0
  19   22:50   33.1    81    3.6   115      6.7   870.6    0.00       0     36.9
  19   23:00   32.0    82    5.0   119      7.5   870.6    0.00       0     36.8
  19   23:10   31.8    83    3.2   122      3.7   870.6    0.00       0     36.7
  19   23:20   31.7    84    3.4   107      3.9   870.4    0.00       0     36.6
  19   23:30   31.6    84    3.2   123      3.6   870.2    0.00       0     36.6
  19   23:40   31.6    84    3.9   123      5.0   870.2    0.00       0     36.5
  19   23:50   31.5    84    2.9   119      3.5   870.0    0.00       0     36.4
  20    0:00   31.6    85    2.7    68      3.7   869.8    0.00       0     36.4
  20    0:10   32.2    85    3.0    31      3.5   869.6    0.00       0     36.3
  20    0:20   32.5    85    2.7    38      3.9   869.4    0.00       0     36.2
  20    0:30   32.1    85    4.0    33      5.2   869.2    0.00       0     36.2
  20    0:40   32.1    86    5.2    38      6.1   869.0    0.00       0     36.1
  20    0:50   32.4    86    4.7    29      5.6   868.8    0.00       0     36.0
  20    1:00   32.4    86    5.3    31      6.5   868.4    0.00       0     36.0
  20    1:10   32.5    85    5.6    42      7.5   868.1    0.00       0     35.9
  20    1:20   32.3    85    6.8    49      8.0   867.9    0.00       0     35.8
  20    1:30   32.1    86    8.7    54     10.5   867.6    0.00       0     35.8
  20    1:40   32.4    85    9.5    44     11.1   867.5    0.00       0     35.8
  20    1:50   32.5    85   10.0    33     11.7   867.5    0.00       0     35.7
  20    2:00   32.4    85    9.3    30     11.4   867.3    0.00       0     35.7
  20    2:10   32.8    85    8.6    26     10.8   867.3    0.00       0     35.6
  20    2:20   33.0    85    7.6    26      9.9   867.2    0.00       0     35.6
  20    2:30   33.5    84    7.4    29     12.7   867.1    0.00       0     35.5
  20    2:40   35.3    80    5.7    50      8.9   867.0    0.00       0     35.5
  20    2:50   35.7    78    3.8    34      6.4   867.0    0.00       0     35.5
  20    3:00   35.9    76    4.5    69      9.2   866.8    0.00       0     35.5
  20    3:10   36.4    73    6.6    60      8.5   866.4    0.00       0     35.5
  20    3:20   36.6    71    5.3    56      6.5   866.2    0.00       0     35.5
  20    3:30   36.2    72    7.2    74     10.9   866.1    0.00       0     35.5
  20    3:40   34.8    75   11.5    78     14.0   865.7    0.00       0     35.4
  20    3:50   34.5    76   11.0    61     12.7   865.3    0.00       0     35.4
  20    4:00   34.5    77   10.9    62     12.9   865.0    0.00       0     35.4
  20    4:10   34.3    78   10.9    58     13.4   864.7    0.00       0     35.4
  20    4:20   34.3    79   10.3    53     12.3   864.4    0.00       0     35.4

Return to Carson Sink graphs page.


Western Regional Climate Center,wrcc@dri.edu